Time;durP1;ratioP1;P1;durP2;ratioP2;P2;SDS_P1;SDS_P2;PMS_P1;PMS_P2;Temp;Humidity;BMP_temperature;BMP_pressure;BME280_temperature;BME280_humidity;BME280_pressure;Samples;Min_cycle;Max_cycle;Signal;HPM_P1;HPM_P2
2023/06/11 00:00:09;;;;;;;4.45;4.05;;;;;;;22.45;55.48;99264.09;346218;28;1057;-77
2023/06/11 00:00:21;;;;;;;4.43;4.03;;;;;;;22.42;55.68;99261.72;346061;28;1067;-77
2023/06/11 00:00:33;;;;;;;5.45;4.05;;;;;;;22.44;55.73;99261.59;345788;28;1227;-77
2023/06/11 00:00:45;;;;;;;6.30;3.95;;;;;;;22.43;55.77;99265.22;345853;28;1490;-77
2023/06/11 00:00:57;;;;;;;5.68;3.88;;;;;;;22.43;55.46;99260.75;346380;28;1101;-77
2023/06/11 00:01:14;;;;;;;6.22;3.97;;;;;;;22.44;55.78;99261.59;345817;28;1751;-77
2023/06/11 00:01:26;;;;;;;4.57;3.90;;;;;;;22.45;56.08;99260.63;345947;28;1211;-77
2023/06/11 00:01:40;;;;;;;5.90;4.00;;;;;;;22.46;55.34;99262.31;346823;28;1683;-77
2023/06/11 00:01:52;;;;;;;6.30;3.95;;;;;;;22.42;55.80;99260.91;346244;28;1701;-77
2023/06/11 00:02:05;;;;;;;5.53;4.00;;;;;;;22.44;55.43;99261.59;346094;28;1483;-77
2023/06/11 00:02:21;;;;;;;4.40;4.00;;;;;;;22.45;55.70;99257.97;345449;28;2014;-77
2023/06/11 00:02:34;;;;;;;4.80;4.03;;;;;;;22.46;55.72;99264.97;346146;28;1069;-77
2023/06/11 00:02:46;;;;;;;5.20;4.20;;;;;;;22.46;55.75;99264.97;346652;28;1152;-77
2023/06/11 00:02:58;;;;;;;5.70;4.25;;;;;;;22.43;55.42;99262.56;347668;28;1070;-78
2023/06/11 00:03:10;;;;;;;5.18;4.20;;;;;;;22.40;55.70;99261.03;347530;28;1079;-77
2023/06/11 00:03:23;;;;;;;6.90;4.30;;;;;;;22.40;55.67;99260.19;346417;28;1117;-77
2023/06/11 00:03:35;;;;;;;6.05;4.28;;;;;;;22.34;55.95;99257.09;345315;28;1511;-78
2023/06/11 00:03:52;;;;;;;4.63;4.10;;;;;;;22.37;55.98;99261.28;345138;28;1852;-77
2023/06/11 00:04:05;;;;;;;4.57;4.10;;;;;;;22.36;56.16;99258.81;345828;28;1063;-77
2023/06/11 00:04:25;;;;;;;4.75;4.20;;;;;;;22.39;55.83;99259.34;347489;28;1536;-78
2023/06/11 00:04:40;;;;;;;6.05;4.20;;;;;;;22.39;55.83;99258.50;347051;28;1054;-77
2023/06/11 00:04:52;;;;;;;7.00;4.20;;;;;;;22.38;55.88;99256.84;346283;28;1089;-77
2023/06/11 00:05:07;;;;;;;6.05;4.20;;;;;;;22.38;55.76;99262.16;346338;28;1186;-77
2023/06/11 00:05:21;;;;;;;4.53;4.00;;;;;;;22.34;56.06;99257.09;345003;28;1110;-77
2023/06/11 00:05:35;;;;;;;4.65;4.18;;;;;;;22.38;55.71;99259.50;346226;28;1063;-78
2023/06/11 00:05:47;;;;;;;4.88;4.38;;;;;;;22.36;55.68;99254.34;346188;28;1066;-78
2023/06/11 00:05:59;;;;;;;4.75;4.20;;;;;;;22.38;55.88;99256.84;346257;28;1217;-77
2023/06/11 00:06:11;;;;;;;4.60;4.20;;;;;;;22.38;55.48;99262.16;345350;28;1480;-77
2023/06/11 00:06:23;;;;;;;4.60;4.15;;;;;;;22.39;55.78;99254.03;346280;28;1576;-78
2023/06/11 00:06:36;;;;;;;4.63;4.18;;;;;;;22.40;55.63;99262.84;346115;28;1090;-77
2023/06/11 00:06:48;;;;;;;4.35;3.95;;;;;;;22.37;55.45;99256.00;346332;28;1250;-78
2023/06/11 00:07:02;;;;;;;4.68;3.92;;;;;;;22.38;55.92;99259.50;346128;28;2214;-77
2023/06/11 00:07:14;;;;;;;4.90;4.20;;;;;;;22.37;56.53;99260.47;345784;28;1265;-78
2023/06/11 00:07:27;;;;;;;4.55;4.07;;;;;;;22.38;56.11;99256.84;345538;28;2095;-78
2023/06/11 00:07:39;;;;;;;4.93;4.00;;;;;;;22.38;55.92;99262.16;346309;28;1191;-77
2023/06/11 00:07:52;;;;;;;5.07;4.10;;;;;;;22.37;55.70;99256.00;346168;28;1156;-78
2023/06/11 00:08:04;;;;;;;4.53;4.13;;;;;;;22.39;55.47;99261.16;344705;28;1392;-77
2023/06/11 00:08:16;;;;;;;4.38;3.97;;;;;;;22.38;55.73;99256.84;345367;28;2069;-78
2023/06/11 00:08:28;;;;;;;4.22;3.83;;;;;;;22.39;55.38;99253.22;346154;28;1221;-78
2023/06/11 00:08:40;;;;;;;4.30;3.90;;;;;;;22.40;55.67;99254.91;346450;28;1159;-78
2023/06/11 00:08:55;;;;;;;4.78;4.28;;;;;;;22.39;55.48;99262.00;347654;28;1071;-77
2023/06/11 00:09:07;;;;;;;5.22;4.50;;;;;;;22.39;55.69;99254.03;347460;28;1223;-78
2023/06/11 00:09:21;;;;;;;4.93;4.32;;;;;;;22.39;55.59;99258.50;347624;28;1082;-78
2023/06/11 00:09:33;;;;;;;4.60;4.20;;;;;;;22.39;55.92;99253.22;347570;28;1122;-78
2023/06/11 00:09:45;;;;;;;4.45;4.05;;;;;;;22.39;55.40;99258.50;345154;28;1497;-78
2023/06/11 00:09:57;;;;;;;4.50;4.10;;;;;;;22.37;55.89;99263.94;345723;28;1142;-78
2023/06/11 00:10:09;;;;;;;4.50;4.10;;;;;;;22.36;55.51;99256.16;347071;28;1378;-78
2023/06/11 00:10:22;;;;;;;4.40;4.00;;;;;;;22.35;55.58;99255.28;347892;28;1126;-78
2023/06/11 00:10:35;;;;;;;4.50;4.10;;;;;;;22.36;55.48;99250.84;347696;28;1093;-77
2023/06/11 00:10:47;;;;;;;4.72;4.20;;;;;;;22.37;55.71;99256.00;347432;28;1228;-77
2023/06/11 00:10:59;;;;;;;6.15;4.20;;;;;;;22.38;55.83;99262.97;347848;28;1125;-78
2023/06/11 00:11:11;;;;;;;6.88;4.30;;;;;;;22.37;56.00;99255.16;345427;28;4873;-77
2023/06/11 00:11:23;;;;;;;6.00;4.32;;;;;;;22.38;55.91;99249.75;345684;28;3036;-78
2023/06/11 00:11:41;;;;;;;4.90;4.40;;;;;;;22.37;56.03;99257.81;345466;28;1164;-78
2023/06/11 00:11:53;;;;;;;4.60;4.20;;;;;;;22.37;55.89;99256.00;347106;28;3039;-78
2023/06/11 00:12:06;;;;;;;4.63;4.18;;;;;;;22.33;55.83;99252.81;347673;28;1160;-78
2023/06/11 00:12:18;;;;;;;4.85;4.15;;;;;;;22.33;55.89;99258.09;348108;28;1013;-78
2023/06/11 00:12:32;;;;;;;4.85;4.00;;;;;;;22.33;55.43;99260.75;346210;28;1592;-77
2023/06/11 00:12:44;;;;;;;4.50;3.90;;;;;;;22.34;55.87;99257.09;346221;28;1335;-78
2023/06/11 00:12:57;;;;;;;4.72;4.10;;;;;;;22.32;55.63;99248.47;346252;28;1346;-78
2023/06/11 00:13:11;;;;;;;4.55;4.07;;;;;;;22.34;55.52;99259.75;346403;28;2672;-78
2023/06/11 00:13:23;;;;;;;5.43;4.05;;;;;;;22.32;55.75;99253.75;346703;28;1228;-78
2023/06/11 00:13:35;;;;;;;5.70;4.10;;;;;;;22.33;55.62;99255.44;345383;28;1087;-78
2023/06/11 00:13:48;;;;;;;5.93;4.20;;;;;;;22.32;55.87;99259.06;346601;28;1786;-78
2023/06/11 00:14:00;;;;;;;5.07;4.30;;;;;;;22.31;56.11;99257.38;347726;28;1085;-77
2023/06/11 00:14:12;;;;;;;5.07;4.13;;;;;;;22.31;55.87;99256.53;347823;28;1175;-78
2023/06/11 00:14:24;;;;;;;5.20;4.00;;;;;;;22.33;55.77;99255.44;347601;28;1348;-78
2023/06/11 00:14:36;;;;;;;6.20;4.30;;;;;;;22.32;55.95;99253.75;348017;28;1258;-78
2023/06/11 00:14:48;;;;;;;6.25;4.53;;;;;;;22.33;55.56;99251.94;346986;28;1240;-78
2023/06/11 00:15:02;;;;;;;5.95;4.68;;;;;;;22.36;55.77;99253.50;347814;28;1054;-78
2023/06/11 00:15:14;;;;;;;5.22;4.60;;;;;;;22.35;55.64;99257.94;347750;28;1026;-78
2023/06/11 00:15:26;;;;;;;5.00;4.37;;;;;;;22.33;55.64;99260.75;346440;28;1178;-78
2023/06/11 00:15:38;;;;;;;4.97;4.20;;;;;;;22.32;55.97;99253.75;346288;28;1032;-78
2023/06/11 00:15:52;;;;;;;4.85;4.35;;;;;;;22.31;56.05;99260.00;346371;28;1265;-77
2023/06/11 00:16:06;;;;;;;6.57;4.38;;;;;;;22.29;55.57;99259.31;345949;28;1736;-77
2023/06/11 00:16:18;;;;;;;6.60;4.15;;;;;;;22.30;55.99;99254.88;346199;28;1985;-78
2023/06/11 00:16:32;;;;;;;5.10;3.90;;;;;;;22.30;56.11;99258.34;346547;28;1027;-78
2023/06/11 00:16:45;;;;;;;4.97;4.03;;;;;;;22.28;55.97;99255.00;348149;28;2044;-78
2023/06/11 00:16:57;;;;;;;4.57;4.10;;;;;;;22.27;56.12;99253.31;349252;28;945;-78
2023/06/11 00:17:10;;;;;;;4.78;4.28;;;;;;;22.27;56.22;99255.13;347962;28;1062;-78
2023/06/11 00:17:22;;;;;;;5.20;4.40;;;;;;;22.28;55.86;99262.13;344793;28;1047;-78
2023/06/11 00:17:35;;;;;;;4.80;4.30;;;;;;;22.28;55.96;99257.66;345097;28;1172;-77
2023/06/11 00:17:48;;;;;;;4.95;4.30;;;;;;;22.27;56.08;99255.13;346113;28;1144;-78
2023/06/11 00:18:01;;;;;;;5.28;4.32;;;;;;;22.26;56.22;99267.53;346633;28;1068;-78
2023/06/11 00:18:16;;;;;;;5.25;4.43;;;;;;;22.27;55.88;99258.59;345041;28;1055;-78
2023/06/11 00:18:28;;;;;;;5.72;4.40;;;;;;;22.25;56.01;99257.91;346546;28;1074;-78
2023/06/11 00:18:41;;;;;;;5.43;4.28;;;;;;;22.24;56.15;99258.88;345271;28;1424;-78
2023/06/11 00:18:55;;;;;;;4.97;4.13;;;;;;;22.24;55.71;99256.25;342283;28;1067;-78
2023/06/11 00:19:07;;;;;;;5.22;4.25;;;;;;;22.25;55.66;99257.06;343886;28;1290;-78
2023/06/11 00:19:20;;;;;;;4.85;4.35;;;;;;;22.25;56.22;99260.56;343872;28;1063;-78
2023/06/11 00:19:32;;;;;;;4.75;4.15;;;;;;;22.27;56.15;99261.25;342600;28;1085;-78
2023/06/11 00:19:47;;;;;;;4.43;4.03;;;;;;;22.27;55.76;99255.97;343184;28;1505;-78
2023/06/11 00:20:03;;;;;;;5.13;4.30;;;;;;;22.28;56.05;99260.28;342422;28;1045;-77
2023/06/11 00:20:16;;;;;;;5.65;4.20;;;;;;;22.28;55.86;99262.13;342354;28;1241;-78
2023/06/11 00:20:28;;;;;;;4.75;4.00;;;;;;;22.28;56.15;99262.13;342286;28;1074;-77
2023/06/11 00:20:41;;;;;;;4.75;4.03;;;;;;;22.27;56.09;99261.25;342669;28;1414;-77
2023/06/11 00:20:56;;;;;;;4.45;4.05;;;;;;;22.24;56.39;99255.41;343426;28;1309;-78
2023/06/11 00:21:10;;;;;;;4.47;3.97;;;;;;;22.23;56.18;99269.56;342437;28;1063;-78
2023/06/11 00:21:22;;;;;;;4.95;3.97;;;;;;;22.22;56.43;99263.44;343239;28;1249;-77
2023/06/11 00:21:36;;;;;;;5.72;4.13;;;;;;;22.22;56.81;99268.75;343704;28;1035;-78
2023/06/11 00:21:48;;;;;;;6.07;4.30;;;;;;;22.23;56.11;99259.81;342623;28;1032;-78
2023/06/11 00:22:02;;;;;;;5.53;4.35;;;;;;;22.22;56.13;99263.44;343178;28;1037;-77
2023/06/11 00:22:14;;;;;;;6.05;4.35;;;;;;;22.23;56.44;99265.09;343468;28;1019;-78
2023/06/11 00:22:27;;;;;;;5.35;4.32;;;;;;;22.22;56.58;99266.09;344766;28;1201;-77
2023/06/11 00:22:40;;;;;;;5.13;4.22;;;;;;;22.22;56.57;99268.75;345330;28;1086;-78
2023/06/11 00:22:53;;;;;;;4.53;4.00;;;;;;;22.23;56.39;99262.47;346343;28;1036;-78
2023/06/11 00:23:05;;;;;;;4.55;4.00;;;;;;;22.23;56.16;99266.94;347680;28;1078;-77
2023/06/11 00:23:17;;;;;;;4.85;4.30;;;;;;;22.22;56.35;99263.44;347922;28;1069;-78
2023/06/11 00:23:29;;;;;;;5.30;4.30;;;;;;;22.22;56.50;99260.81;347751;28;1155;-78
2023/06/11 00:23:41;;;;;;;5.03;4.37;;;;;;;22.20;56.16;99270.69;347842;28;1149;-78
2023/06/11 00:23:53;;;;;;;4.82;4.28;;;;;;;22.20;56.45;99269.84;348662;28;1063;-78
2023/06/11 00:24:05;;;;;;;4.97;4.30;;;;;;;22.18;56.72;99267.34;347745;28;1280;-78
2023/06/11 00:24:17;;;;;;;4.85;4.20;;;;;;;22.19;56.25;99269.00;347858;28;1237;-78
2023/06/11 00:24:30;;;;;;;6.03;4.32;;;;;;;22.19;56.44;99266.34;347987;28;1616;-78
2023/06/11 00:24:42;;;;;;;6.38;4.28;;;;;;;22.19;56.91;99270.81;347676;28;1106;-77
2023/06/11 00:24:53;;;;;;;5.85;4.40;;;;;;;22.19;56.71;99269.00;347739;28;1237;-78
2023/06/11 00:25:07;;;;;;;4.93;4.28;;;;;;;22.17;56.46;99270.13;347525;28;1098;-78
2023/06/11 00:25:21;;;;;;;4.93;4.20;;;;;;;22.14;56.79;99260.63;347413;28;1098;-78
2023/06/11 00:25:33;;;;;;;5.45;4.22;;;;;;;22.13;57.00;99269.53;347795;28;1067;-78
2023/06/11 00:25:45;;;;;;;5.47;4.20;;;;;;;22.15;56.67;99267.59;347870;28;1067;-77
2023/06/11 00:26:06;;;;;;;5.10;4.10;;;;;;;22.12;56.60;99267.88;346526;28;1169;-78
2023/06/11 00:26:18;;;;;;;5.30;4.30;;;;;;;22.12;56.52;99263.41;344997;28;1220;-77
2023/06/11 00:26:30;;;;;;;4.93;4.40;;;;;;;22.12;56.75;99263.41;346242;28;1526;-78
2023/06/11 00:26:42;;;;;;;5.03;4.40;;;;;;;22.16;56.56;99269.28;347941;28;1189;-78
2023/06/11 00:26:55;;;;;;;5.35;4.57;;;;;;;22.12;56.29;99273.16;347998;28;1162;-78
2023/06/11 00:27:07;;;;;;;6.43;4.70;;;;;;;22.13;56.73;99270.41;348353;28;958;-78
2023/06/11 00:27:19;;;;;;;6.22;4.63;;;;;;;22.13;56.41;99270.41;347610;28;1158;-78
2023/06/11 00:27:31;;;;;;;5.45;4.40;;;;;;;22.15;56.41;99270.25;346306;28;1404;-78
2023/06/11 00:27:43;;;;;;;5.07;4.40;;;;;;;22.13;56.78;99270.41;345851;28;1235;-78
2023/06/11 00:27:55;;;;;;;6.00;4.30;;;;;;;22.13;57.11;99264.25;346595;28;1069;-78
2023/06/11 00:28:09;;;;;;;5.93;4.28;;;;;;;22.14;56.66;99265.94;346268;28;1269;-78
2023/06/11 00:28:22;;;;;;;4.55;4.10;;;;;;;22.14;56.58;99265.94;346677;28;1191;-78
2023/06/11 00:28:34;;;;;;;4.80;4.30;;;;;;;22.12;56.96;99267.88;347612;28;1042;-78
2023/06/11 00:28:46;;;;;;;4.82;4.30;;;;;;;22.10;56.83;99269.81;347688;28;1080;-78
2023/06/11 00:28:58;;;;;;;4.90;4.40;;;;;;;22.09;56.42;99263.69;347700;28;1281;-78
2023/06/11 00:29:10;;;;;;;5.00;4.50;;;;;;;22.10;56.29;99264.53;347876;28;1084;-78
2023/06/11 00:29:22;;;;;;;4.97;4.43;;;;;;;22.09;56.68;99257.53;346047;28;2531;-77
2023/06/11 00:29:34;;;;;;;4.88;4.30;;;;;;;22.11;56.74;99266.19;345660;28;1054;-78
2023/06/11 00:29:46;;;;;;;5.75;4.25;;;;;;;22.12;56.73;99262.56;344874;28;1028;-78
2023/06/11 00:30:01;;;;;;;5.85;4.15;;;;;;;22.13;56.73;99266.88;345265;28;1019;-78
2023/06/11 00:30:13;;;;;;;5.05;4.20;;;;;;;22.13;56.41;99264.25;345021;28;1123;-78
2023/06/11 00:30:27;;;;;;;6.47;4.40;;;;;;;22.14;56.68;99261.47;345148;28;1086;-78
2023/06/11 00:30:39;;;;;;;7.57;4.50;;;;;;;22.17;56.25;99265.66;343612;28;1219;-78
2023/06/11 00:30:51;;;;;;;6.90;4.45;;;;;;;22.17;56.35;99270.94;342527;28;1055;-78
2023/06/11 00:31:03;;;;;;;6.85;4.30;;;;;;;22.17;56.45;99268.28;343090;28;1202;-78
2023/06/11 00:31:15;;;;;;;5.40;4.30;;;;;;;22.19;56.31;99263.69;344374;28;1231;-78
2023/06/11 00:31:28;;;;;;;5.68;4.30;;;;;;;22.21;56.08;99266.22;345038;28;1130;-78
2023/06/11 00:31:40;;;;;;;4.95;4.25;;;;;;;22.20;56.51;99265.41;345928;28;1253;-78
2023/06/11 00:31:52;;;;;;;4.85;4.30;;;;;;;22.21;55.97;99260.94;346424;28;1094;-78
2023/06/11 00:32:04;;;;;;;5.30;4.47;;;;;;;22.17;56.08;99265.66;346065;28;1141;-77
2023/06/11 00:32:16;;;;;;;5.53;4.30;;;;;;;22.18;56.37;99261.22;346173;28;1051;-78
2023/06/11 00:32:29;;;;;;;5.82;4.22;;;;;;;22.17;56.83;99264.81;346041;28;1141;-78
2023/06/11 00:32:41;;;;;;;4.85;4.18;;;;;;;22.18;56.74;99266.50;347935;28;1128;-78
2023/06/11 00:32:53;;;;;;;5.35;4.30;;;;;;;22.17;56.63;99264.81;349251;28;1060;-78
2023/06/11 00:33:05;;;;;;;6.00;4.40;;;;;;;22.15;56.24;99262.28;348958;28;1046;-78
2023/06/11 00:33:17;;;;;;;5.50;4.38;;;;;;;22.15;56.76;99267.59;349310;28;1237;-77
2023/06/11 00:33:29;;;;;;;5.30;4.30;;;;;;;22.14;57.13;99265.94;349395;28;1183;-78
2023/06/11 00:33:41;;;;;;;5.28;4.40;;;;;;;22.15;56.68;99264.94;349131;28;1537;-78
2023/06/11 00:33:53;;;;;;;5.25;4.32;;;;;;;22.14;56.48;99260.63;350460;28;1066;-78
2023/06/11 00:34:05;;;;;;;4.85;4.13;;;;;;;22.12;56.70;99263.41;349018;28;1057;-78
2023/06/11 00:34:17;;;;;;;4.65;4.10;;;;;;;22.13;56.65;99267.75;349235;28;1078;-78
2023/06/11 00:34:29;;;;;;;5.43;4.45;;;;;;;22.12;56.83;99265.22;347508;28;1257;-78
2023/06/11 00:34:41;;;;;;;6.30;4.68;;;;;;;22.13;56.37;99261.59;346256;28;924;-78
2023/06/11 00:34:53;;;;;;;6.45;4.72;;;;;;;22.13;56.40;99269.53;346473;28;1071;-78
2023/06/11 00:35:07;;;;;;;5.57;4.35;;;;;;;22.12;56.85;99263.41;346363;28;1259;-78
2023/06/11 00:35:20;;;;;;;5.18;4.22;;;;;;;22.16;56.83;99268.44;346221;28;1167;-78
2023/06/11 00:35:32;;;;;;;5.25;4.18;;;;;;;22.15;56.28;99272.88;346697;28;1244;-78
2023/06/11 00:35:44;;;;;;;6.32;4.30;;;;;;;22.14;56.70;99263.28;344882;28;1083;-78
2023/06/11 00:35:56;;;;;;;6.63;4.20;;;;;;;22.14;56.78;99263.28;343663;28;1193;-78
2023/06/11 00:36:07;;;;;;;6.45;4.30;;;;;;;22.12;56.53;99265.22;342192;28;1774;-78
2023/06/11 00:36:20;;;;;;;5.65;4.40;;;;;;;22.13;56.28;99269.53;340946;29;1176;-78
2023/06/11 00:36:33;;;;;;;6.10;4.35;;;;;;;22.12;56.57;99265.22;341582;28;1226;-77
2023/06/11 00:36:45;;;;;;;6.10;4.20;;;;;;;22.12;56.70;99263.41;342996;28;1159;-77
2023/06/11 00:36:57;;;;;;;6.32;4.30;;;;;;;22.13;56.63;99269.53;343712;28;1238;-78
2023/06/11 00:37:09;;;;;;;6.00;4.32;;;;;;;22.13;56.50;99272.19;343642;28;1307;-78
2023/06/11 00:37:22;;;;;;;6.25;4.60;;;;;;;22.12;56.50;99260.75;342302;28;1171;-78
2023/06/11 00:37:37;;;;;;;7.70;4.80;;;;;;;22.13;56.77;99264.25;342198;28;1053;-78
2023/06/11 00:37:50;;;;;;;7.72;4.80;;;;;;;22.12;57.10;99268.69;342277;28;1401;-77
2023/06/11 00:38:02;;;;;;;7.22;4.30;;;;;;;22.13;56.87;99262.44;343569;28;1164;-77
2023/06/11 00:38:15;;;;;;;5.10;4.18;;;;;;;22.13;56.75;99261.59;344528;28;1981;-78
2023/06/11 00:38:31;;;;;;;4.82;4.32;;;;;;;22.12;57.24;99267.88;347887;28;1066;-78
2023/06/11 00:38:43;;;;;;;6.25;4.45;;;;;;;22.12;56.87;99267.88;345725;28;1090;-78
2023/06/11 00:38:56;;;;;;;5.93;4.30;;;;;;;22.11;57.03;99272.34;344917;28;1038;-78
2023/06/11 00:39:08;;;;;;;5.07;4.18;;;;;;;22.10;57.37;99265.34;344955;28;1077;-78
2023/06/11 00:39:20;;;;;;;5.30;4.10;;;;;;;22.13;56.82;99266.88;345144;28;1114;-78
2023/06/11 00:39:33;;;;;;;5.90;4.20;;;;;;;22.12;56.40;99267.88;346291;28;1051;-78
2023/06/11 00:39:45;;;;;;;4.60;4.00;;;;;;;22.14;56.81;99271.22;347716;28;1175;-78
2023/06/11 00:39:57;;;;;;;4.35;3.85;;;;;;;22.16;56.45;99269.28;346304;28;1031;-77
2023/06/11 00:40:09;;;;;;;4.50;4.05;;;;;;;22.11;56.51;99268.81;346356;28;1027;-77
2023/06/11 00:40:21;;;;;;;4.50;4.10;;;;;;;22.11;56.42;99269.69;346424;28;1059;-78
2023/06/11 00:40:33;;;;;;;4.68;4.18;;;;;;;22.11;56.22;99266.19;344997;28;1194;-78
2023/06/11 00:40:46;;;;;;;4.95;4.45;;;;;;;22.11;56.57;99268.81;345060;28;1160;-77
2023/06/11 00:40:58;;;;;;;5.05;4.55;;;;;;;22.10;56.72;99269.81;344828;28;1087;-78
2023/06/11 00:41:10;;;;;;;5.00;4.50;;;;;;;22.12;56.40;99267.88;345462;28;1072;-77
2023/06/11 00:41:24;;;;;;;4.85;4.35;;;;;;;22.11;56.57;99271.47;346084;28;1210;-78
2023/06/11 00:41:37;;;;;;;6.00;4.43;;;;;;;22.13;56.95;99267.75;345534;28;1595;-78
2023/06/11 00:41:49;;;;;;;6.22;4.40;;;;;;;22.15;56.77;99270.25;345006;28;1083;-78
2023/06/11 00:42:01;;;;;;;5.47;4.40;;;;;;;22.14;56.83;99268.56;345812;28;1717;-78
2023/06/11 00:42:13;;;;;;;5.60;4.57;;;;;;;22.14;56.76;99265.94;347225;28;1177;-77
2023/06/11 00:42:27;;;;;;;6.03;4.43;;;;;;;22.12;56.57;99267.88;347604;28;1071;-78
2023/06/11 00:42:40;;;;;;;6.07;4.43;;;;;;;22.11;56.49;99263.53;347537;28;1114;-78
2023/06/11 00:42:52;;;;;;;4.97;4.45;;;;;;;22.11;57.04;99268.81;347643;28;1221;-78
2023/06/11 00:43:07;;;;;;;5.00;4.40;;;;;;;22.11;57.16;99274.13;347701;28;1159;-78
2023/06/11 00:43:21;;;;;;;5.45;4.57;;;;;;;22.09;57.24;99266.34;346850;28;2278;-77
2023/06/11 00:43:33;;;;;;;5.30;4.80;;;;;;;22.09;57.02;99265.47;346043;28;1001;-78
2023/06/11 00:43:45;;;;;;;5.55;4.85;;;;;;;22.08;56.93;99271.75;346765;28;1267;-78
2023/06/11 00:44:02;;;;;;;5.22;4.55;;;;;;;22.07;56.91;99265.63;347306;28;1040;-77
2023/06/11 00:44:21;;;;;;;5.47;4.63;;;;;;;22.07;57.09;99265.63;347825;28;1022;-78
2023/06/11 00:44:33;;;;;;;6.20;4.50;;;;;;;22.09;56.92;99273.41;346217;28;972;-78
2023/06/11 00:44:47;;;;;;;5.72;4.25;;;;;;;22.09;56.93;99270.78;346296;28;1074;-78
2023/06/11 00:45:01;;;;;;;5.13;4.20;;;;;;;22.08;56.52;99269.13;346209;28;1188;-77
2023/06/11 00:45:15;;;;;;;4.75;4.15;;;;;;;22.09;56.44;99265.47;346164;28;1070;-77
2023/06/11 00:45:27;;;;;;;5.57;4.18;;;;;;;22.09;56.81;99271.63;346556;28;1358;-78
2023/06/11 00:45:41;;;;;;;5.72;4.32;;;;;;;22.09;56.57;99266.34;347709;28;1447;-78
2023/06/11 00:45:54;;;;;;;5.00;4.47;;;;;;;22.10;56.69;99265.34;349173;28;1207;-78
2023/06/11 00:46:10;;;;;;;4.90;4.40;;;;;;;22.08;56.85;99272.59;347776;28;1127;-78
2023/06/11 00:46:24;;;;;;;4.70;4.20;;;;;;;22.07;56.51;99270.06;348978;28;1094;-77
2023/06/11 00:46:37;;;;;;;4.93;4.25;;;;;;;22.06;56.87;99273.69;347290;28;1712;-78
2023/06/11 00:46:52;;;;;;;5.13;4.35;;;;;;;22.08;56.85;99271.75;346450;28;1023;-78
2023/06/11 00:47:06;;;;;;;5.13;4.55;;;;;;;22.06;56.95;99263.13;346085;28;1080;-77
2023/06/11 00:47:18;;;;;;;5.03;4.53;;;;;;;22.06;56.90;99268.41;347828;28;1070;-78
2023/06/11 00:47:30;;;;;;;5.18;4.68;;;;;;;22.04;56.79;99270.34;347615;28;1080;-78
2023/06/11 00:47:42;;;;;;;5.15;4.65;;;;;;;22.06;56.86;99268.41;347854;28;1069;-77
2023/06/11 00:47:56;;;;;;;5.18;4.68;;;;;;;22.07;57.07;99264.78;347628;28;1050;-78
2023/06/11 00:48:08;;;;;;;5.07;4.57;;;;;;;22.08;56.93;99269.13;348234;28;1219;-77
2023/06/11 00:48:20;;;;;;;4.97;4.50;;;;;;;22.09;56.97;99273.41;349059;28;1081;-78
2023/06/11 00:48:32;;;;;;;5.20;4.63;;;;;;;22.08;56.93;99277.06;349032;28;1018;-78
2023/06/11 00:48:45;;;;;;;5.45;4.40;;;;;;;22.06;57.16;99273.69;346265;28;1046;-78
2023/06/11 00:48:58;;;;;;;5.05;4.32;;;;;;;22.03;57.61;99273.94;346205;28;1186;-78
2023/06/11 00:49:11;;;;;;;5.07;4.40;;;;;;;22.03;57.08;99273.94;345008;28;1156;-78
2023/06/11 00:49:23;;;;;;;4.90;4.40;;;;;;;22.05;57.21;99277.31;344999;28;1058;-78
2023/06/11 00:49:36;;;;;;;6.68;4.40;;;;;;;22.04;56.93;99273.81;345079;28;1165;-78
2023/06/11 00:49:48;;;;;;;7.15;4.60;;;;;;;22.06;56.96;99268.41;344870;28;1121;-77
2023/06/11 00:50:04;;;;;;;5.70;4.63;;;;;;;22.06;57.10;99271.06;345516;28;1783;-78
2023/06/11 00:50:16;;;;;;;6.22;4.45;;;;;;;22.05;56.96;99272.84;346024;28;1079;-78
2023/06/11 00:50:45;;;;;;;6.05;4.25;;;;;;;22.02;56.97;99273.13;346319;28;1082;-77
2023/06/11 00:50:57;;;;;;;5.00;4.20;;;;;;;22.06;57.22;99273.69;346559;28;1232;-78
2023/06/11 00:51:10;;;;;;;7.18;4.40;;;;;;;22.05;56.99;99272.84;347744;28;1171;-78
2023/06/11 00:51:24;;;;;;;7.50;4.50;;;;;;;22.04;57.20;99275.66;348955;28;1194;-78
2023/06/11 00:51:41;;;;;;;6.07;4.53;;;;;;;22.03;57.24;99271.31;349120;28;1189;-78
2023/06/11 00:51:53;;;;;;;5.70;4.70;;;;;;;22.04;57.35;99275.66;348956;28;1294;-78
2023/06/11 00:52:09;;;;;;;4.75;4.35;;;;;;;22.03;57.46;99271.31;349074;28;1201;-77
2023/06/11 00:52:22;;;;;;;4.57;4.13;;;;;;;22.04;57.34;99270.34;349036;28;1218;-77
2023/06/11 00:52:35;;;;;;;5.05;4.47;;;;;;;22.04;56.93;99273.00;349027;28;1217;-77
2023/06/11 00:52:47;;;;;;;5.07;4.53;;;;;;;22.02;57.08;99272.28;349116;28;1192;-77
2023/06/11 00:52:59;;;;;;;5.20;4.55;;;;;;;22.01;57.27;99271.44;349017;28;1023;-78
2023/06/11 00:53:12;;;;;;;4.80;4.30;;;;;;;21.99;56.88;99275.19;349316;28;1018;-78
2023/06/11 00:53:24;;;;;;;4.70;4.30;;;;;;;21.97;57.34;99266.53;349121;28;1097;-78
2023/06/11 00:53:36;;;;;;;5.00;4.43;;;;;;;21.94;57.55;99271.13;347746;28;1235;-77
2023/06/11 00:53:48;;;;;;;5.60;4.75;;;;;;;21.95;57.17;99271.97;346328;28;1066;-78
2023/06/11 00:54:00;;;;;;;5.32;4.72;;;;;;;21.92;57.69;99273.06;346098;28;1586;-78
2023/06/11 00:54:16;;;;;;;5.45;4.65;;;;;;;21.92;57.17;99273.06;346387;28;1118;-78
2023/06/11 00:54:28;;;;;;;5.03;4.30;;;;;;;21.89;57.15;99276.00;345856;28;1442;-77
2023/06/11 00:54:41;;;;;;;4.85;4.30;;;;;;;21.88;57.15;99276.94;345044;28;1048;-78
2023/06/11 00:54:54;;;;;;;5.57;4.47;;;;;;;21.88;57.20;99276.94;344896;28;1698;-78
2023/06/11 00:55:11;;;;;;;5.38;4.30;;;;;;;21.87;57.29;99280.59;344153;28;1399;-78
2023/06/11 00:55:24;;;;;;;4.90;4.40;;;;;;;21.88;57.15;99276.94;344886;28;1035;-77
2023/06/11 00:55:36;;;;;;;6.32;4.45;;;;;;;21.88;57.29;99274.31;344840;28;1156;-78
2023/06/11 00:55:47;;;;;;;7.50;4.40;;;;;;;21.86;57.54;99268.31;343639;28;1266;-77
2023/06/11 00:56:00;;;;;;;7.68;4.45;;;;;;;21.87;57.44;99264.72;343609;28;1222;-78
2023/06/11 00:56:17;;;;;;;6.82;4.50;;;;;;;21.87;57.87;99274.44;343049;28;1015;-77
2023/06/11 00:56:29;;;;;;;6.82;4.22;;;;;;;21.88;57.60;99270.81;343583;28;1082;-78
2023/06/11 00:56:44;;;;;;;6.53;4.20;;;;;;;21.88;57.55;99274.31;344027;28;1157;-78
2023/06/11 00:56:56;;;;;;;5.68;4.35;;;;;;;21.87;57.59;99272.66;345036;28;932;-78
2023/06/11 00:57:08;;;;;;;5.45;4.50;;;;;;;21.88;57.32;99276.13;345377;28;1187;-78
2023/06/11 00:57:24;;;;;;;4.78;4.20;;;;;;;21.87;57.44;99275.28;345095;28;1036;-78
2023/06/11 00:57:40;;;;;;;5.30;4.20;;;;;;;21.86;57.64;99267.47;343555;28;1093;-78
2023/06/11 00:57:53;;;;;;;5.10;4.30;;;;;;;21.86;57.50;99270.94;344941;28;1098;-78
2023/06/11 00:58:13;;;;;;;5.03;4.30;;;;;;;21.87;57.60;99275.28;346073;28;1147;-78
2023/06/11 00:58:25;;;;;;;5.75;4.53;;;;;;;21.86;57.53;99278.88;346071;28;1019;-78
2023/06/11 00:58:37;;;;;;;6.05;4.60;;;;;;;21.89;57.17;99276.00;346569;28;1050;-78
2023/06/11 00:58:50;;;;;;;5.40;4.40;;;;;;;21.89;57.39;99272.50;344970;28;1183;-78
2023/06/11 00:59:02;;;;;;;4.95;4.30;;;;;;;21.89;57.24;99277.78;345130;28;1548;-78
2023/06/11 00:59:17;;;;;;;4.82;4.32;;;;;;;21.88;57.90;99276.94;343740;28;1079;-78
2023/06/11 00:59:33;;;;;;;4.95;4.43;;;;;;;21.86;57.92;99278.88;345346;28;1013;-78
2023/06/11 00:59:48;;;;;;;5.05;4.55;;;;;;;21.89;57.83;99265.41;346133;28;1067;-78
2023/06/11 01:00:00;;;;;;;4.80;4.40;;;;;;;21.89;57.46;99277.78;346121;28;1882;-78
2023/06/11 01:00:13;;;;;;;4.68;4.28;;;;;;;21.87;57.19;99275.28;346278;28;1473;-78
2023/06/11 01:00:26;;;;;;;7.15;4.47;;;;;;;21.87;58.00;99275.28;345651;28;1161;-78
2023/06/11 01:00:38;;;;;;;7.40;4.72;;;;;;;21.88;57.68;99271.66;344989;28;1086;-78
2023/06/11 01:00:55;;;;;;;7.30;4.70;;;;;;;21.88;57.58;99276.94;344416;28;1224;-77
2023/06/11 01:01:07;;;;;;;5.00;4.50;;;;;;;21.89;57.38;99268.06;346543;28;1228;-78
2023/06/11 01:01:25;;;;;;;4.80;4.30;;;;;;;21.91;57.50;99275.84;347089;28;1027;-78
2023/06/11 01:01:43;;;;;;;5.72;4.43;;;;;;;21.93;57.11;99280.06;346847;28;1659;-78
2023/06/11 01:02:08;;;;;;;6.15;4.88;;;;;;;21.95;57.00;99282.53;346127;28;1847;-78
2023/06/11 01:02:30;;;;;;;5.32;4.78;;;;;;;21.94;57.82;99271.13;346484;28;1081;-78
2023/06/11 01:03:07;;;;;;;5.82;4.68;;;;;;;21.93;57.32;99258.88;346258;28;1171;-77
2023/06/11 01:03:26;;;;;;;5.65;4.40;;;;;;;21.93;57.17;99263.31;348998;28;1212;-78
2023/06/11 01:03:41;;;;;;;5.47;4.50;;;;;;;21.92;57.48;99266.94;349065;28;1023;-78
2023/06/11 01:03:57;;;;;;;5.35;4.50;;;;;;;21.90;57.42;99269.72;347800;28;1162;-77